ECP45K EBLG-LPMA
Flight info
| Callsign | ECP45K |
|---|---|
| Flight time | N/A |
| Altitude | 39000 |
| Route | CIV N872 MEDIL DCT ANG DCT VES DCT STG DCT DEMOS DCT LIDRO |
| Aircraft | A20N/M-SDE2E3FGHIRWXY/LB1 |
Departure
| Time | 2026-05-05 13:08 |
|---|---|
| Airport | Liège Airport (EBLG) |
Arrival
| Time | N/A |
|---|---|
| Airport | Cristiano Ronaldo International Airport (LPMA) |
| Time | Latitude | Longitude | Altitude | Speed | Heading |
|---|---|---|---|---|---|
| 2026-05-05 12:53 | 50.64376 | 5.46003 | 605 ft | 0 kts | 135° |
| 2026-05-05 12:54 | 50.64378 | 5.46000 | 605 ft | 1 kts | 135° |
| 2026-05-05 12:54 | 50.64389 | 5.45984 | 604 ft | 2 kts | 135° |
| 2026-05-05 12:55 | 50.64399 | 5.45967 | 603 ft | 2 kts | 135° |
| 2026-05-05 12:55 | 50.64410 | 5.45951 | 602 ft | 2 kts | 135° |
| 2026-05-05 12:55 | 50.64421 | 5.45934 | 601 ft | 2 kts | 135° |
| 2026-05-05 12:55 | 50.64433 | 5.45920 | 601 ft | 2 kts | 162° |
| 2026-05-05 12:56 | 50.64448 | 5.45916 | 600 ft | 2 kts | 186° |
| 2026-05-05 12:56 | 50.64462 | 5.45923 | 600 ft | 2 kts | 212° |
| 2026-05-05 12:56 | 50.64469 | 5.45931 | 600 ft | 1 kts | 227° |
| 2026-05-05 12:56 | 50.64473 | 5.45937 | 600 ft | 0 kts | 226° |
| 2026-05-05 13:02 | 50.64466 | 5.45927 | 600 ft | 6 kts | 226° |
| 2026-05-05 13:02 | 50.64417 | 5.45848 | 599 ft | 11 kts | 224° |
| 2026-05-05 13:03 | 50.64359 | 5.45757 | 599 ft | 12 kts | 225° |
| 2026-05-05 13:03 | 50.64290 | 5.45646 | 597 ft | 14 kts | 224° |
| 2026-05-05 13:03 | 50.64215 | 5.45528 | 596 ft | 16 kts | 225° |
| 2026-05-05 13:03 | 50.64130 | 5.45394 | 595 ft | 17 kts | 225° |
| 2026-05-05 13:04 | 50.64046 | 5.45262 | 596 ft | 16 kts | 222° |
| 2026-05-05 13:04 | 50.63971 | 5.45141 | 600 ft | 14 kts | 226° |
| 2026-05-05 13:04 | 50.63897 | 5.45027 | 600 ft | 15 kts | 225° |
| 2026-05-05 13:04 | 50.63815 | 5.44895 | 601 ft | 17 kts | 225° |
| 2026-05-05 13:05 | 50.63731 | 5.44762 | 602 ft | 17 kts | 223° |
| 2026-05-05 13:05 | 50.63646 | 5.44630 | 603 ft | 16 kts | 225° |
| 2026-05-05 13:05 | 50.63567 | 5.44501 | 604 ft | 16 kts | 225° |
| 2026-05-05 13:05 | 50.63489 | 5.44378 | 606 ft | 15 kts | 225° |
| 2026-05-05 13:06 | 50.63414 | 5.44259 | 607 ft | 14 kts | 224° |
| 2026-05-05 13:06 | 50.63342 | 5.44146 | 609 ft | 14 kts | 225° |
| 2026-05-05 13:06 | 50.63277 | 5.44043 | 612 ft | 12 kts | 224° |
| 2026-05-05 13:06 | 50.63218 | 5.43949 | 615 ft | 11 kts | 225° |
| 2026-05-05 13:07 | 50.63193 | 5.43884 | 617 ft | 6 kts | 269° |
| 2026-05-05 13:07 | 50.63238 | 5.43832 | 617 ft | 14 kts | 7° |
| 2026-05-05 13:07 | 50.63340 | 5.43833 | 615 ft | 12 kts | 342° |
| 2026-05-05 13:07 | 50.63405 | 5.43881 | 613 ft | 15 kts | 45° |
| 2026-05-05 13:08 | 50.63636 | 5.44247 | 602 ft | 83 kts | 44° |
| 2026-05-05 13:08 | 50.64198 | 5.45138 | 588 ft | 144 kts | 45° |
| 2026-05-05 13:08 | 50.64983 | 5.46373 | 973 ft | 161 kts | 44° |
| 2026-05-05 13:08 | 50.65773 | 5.47618 | 1615 ft | 164 kts | 44° |
| 2026-05-05 13:09 | 50.66571 | 5.48864 | 2331 ft | 165 kts | 45° |
| 2026-05-05 13:09 | 50.67396 | 5.50179 | 2854 ft | 178 kts | 45° |
| 2026-05-05 13:09 | 50.68295 | 5.51621 | 3322 ft | 195 kts | 46° |
| 2026-05-05 13:09 | 50.69308 | 5.53249 | 3752 ft | 218 kts | 46° |
| 2026-05-05 13:10 | 50.70382 | 5.54969 | 4460 ft | 227 kts | 45° |
| 2026-05-05 13:10 | 50.71572 | 5.56619 | 5309 ft | 232 kts | 28° |
| 2026-05-05 13:10 | 50.73128 | 5.57243 | 6098 ft | 239 kts | 357° |
| 2026-05-05 13:10 | 50.74697 | 5.56516 | 6852 ft | 245 kts | 326° |
| 2026-05-05 13:11 | 50.75849 | 5.54557 | 7643 ft | 250 kts | 294° |
| 2026-05-05 13:11 | 50.76387 | 5.51950 | 8454 ft | 253 kts | 283° |
| 2026-05-05 13:11 | 50.76820 | 5.49268 | 9219 ft | 256 kts | 283° |
| 2026-05-05 13:11 | 50.77267 | 5.46544 | 9993 ft | 260 kts | 284° |
| 2026-05-05 13:12 | 50.77729 | 5.43814 | 10743 ft | 263 kts | 284° |
| 2026-05-05 13:12 | 50.78161 | 5.40990 | 11430 ft | 270 kts | 282° |
| 2026-05-05 13:12 | 50.78582 | 5.38036 | 11840 ft | 287 kts | 282° |
| 2026-05-05 13:12 | 50.79030 | 5.34865 | 12221 ft | 305 kts | 282° |
| 2026-05-05 13:13 | 50.79504 | 5.31521 | 12690 ft | 318 kts | 282° |
| 2026-05-05 13:13 | 50.79989 | 5.28112 | 13402 ft | 323 kts | 282° |
| 2026-05-05 13:13 | 50.80479 | 5.24646 | 14137 ft | 326 kts | 282° |
| 2026-05-05 13:13 | 50.80977 | 5.21143 | 14864 ft | 330 kts | 282° |
| 2026-05-05 13:14 | 50.81473 | 5.17631 | 15558 ft | 333 kts | 282° |
| 2026-05-05 13:14 | 50.81976 | 5.14062 | 16253 ft | 337 kts | 282° |
| 2026-05-05 13:14 | 50.82484 | 5.10444 | 16919 ft | 340 kts | 281° |
| 2026-05-05 13:14 | 50.82993 | 5.06787 | 17582 ft | 344 kts | 281° |
| 2026-05-05 13:15 | 50.83501 | 5.03124 | 18207 ft | 348 kts | 281° |
| 2026-05-05 13:15 | 50.84020 | 4.99374 | 18849 ft | 351 kts | 281° |
| 2026-05-05 13:15 | 50.84547 | 4.95568 | 19489 ft | 354 kts | 281° |
| 2026-05-05 13:15 | 50.85066 | 4.91798 | 20107 ft | 357 kts | 281° |
| 2026-05-05 13:16 | 50.85595 | 4.87949 | 20721 ft | 360 kts | 281° |
| 2026-05-05 13:16 | 50.86125 | 4.84079 | 21311 ft | 363 kts | 280° |
| 2026-05-05 13:16 | 50.86658 | 4.80183 | 21889 ft | 366 kts | 280° |
| 2026-05-05 13:16 | 50.87193 | 4.76252 | 22451 ft | 369 kts | 280° |
| 2026-05-05 13:17 | 50.87735 | 4.72265 | 23009 ft | 372 kts | 280° |
| 2026-05-05 13:17 | 50.88276 | 4.68271 | 23552 ft | 375 kts | 280° |
| 2026-05-05 13:17 | 50.88823 | 4.64228 | 24103 ft | 378 kts | 279° |
| 2026-05-05 13:17 | 50.89377 | 4.60121 | 24652 ft | 381 kts | 279° |
| 2026-05-05 13:18 | 50.89713 | 4.56009 | 25155 ft | 379 kts | 264° |
| 2026-05-05 13:18 | 50.89189 | 4.51991 | 25655 ft | 374 kts | 244° |
| 2026-05-05 13:18 | 50.87882 | 4.48468 | 26186 ft | 370 kts | 231° |
| 2026-05-05 13:18 | 50.86362 | 4.45231 | 26690 ft | 372 kts | 231° |
| 2026-05-05 13:19 | 50.84807 | 4.41936 | 27167 ft | 375 kts | 231° |
| 2026-05-05 13:19 | 50.83250 | 4.38613 | 27650 ft | 377 kts | 231° |
| 2026-05-05 13:19 | 50.81678 | 4.35238 | 28126 ft | 379 kts | 231° |
| 2026-05-05 13:19 | 50.80107 | 4.31859 | 28576 ft | 381 kts | 230° |
| 2026-05-05 13:20 | 50.78552 | 4.28511 | 29007 ft | 383 kts | 230° |
| 2026-05-05 13:20 | 50.76970 | 4.25105 | 29452 ft | 385 kts | 230° |
| 2026-05-05 13:20 | 50.75390 | 4.21709 | 29872 ft | 387 kts | 230° |
| 2026-05-05 13:20 | 50.73798 | 4.18286 | 30279 ft | 389 kts | 230° |
| 2026-05-05 13:21 | 50.72191 | 4.14837 | 30671 ft | 391 kts | 230° |
| 2026-05-05 13:21 | 50.70602 | 4.11430 | 31049 ft | 392 kts | 230° |
| 2026-05-05 13:21 | 50.68981 | 4.07961 | 31394 ft | 394 kts | 230° |
| 2026-05-05 13:21 | 50.67352 | 4.04478 | 31733 ft | 396 kts | 230° |
| 2026-05-05 13:22 | 50.65705 | 4.00966 | 32077 ft | 398 kts | 230° |
| 2026-05-05 13:22 | 50.64080 | 3.97504 | 32397 ft | 399 kts | 230° |
| 2026-05-05 13:22 | 50.62416 | 3.93974 | 32673 ft | 401 kts | 229° |
| 2026-05-05 13:22 | 50.60644 | 3.90638 | 32950 ft | 401 kts | 224° |
| 2026-05-05 13:23 | 50.58674 | 3.87502 | 33218 ft | 401 kts | 220° |
| 2026-05-05 13:23 | 50.56580 | 3.84678 | 33470 ft | 401 kts | 216° |
| 2026-05-05 13:23 | 50.54332 | 3.82119 | 33710 ft | 402 kts | 211° |
| 2026-05-05 13:23 | 50.51924 | 3.79832 | 33922 ft | 403 kts | 207° |
| 2026-05-05 13:24 | 50.49422 | 3.77880 | 34129 ft | 403 kts | 202° |
| 2026-05-05 13:24 | 50.46863 | 3.76114 | 34358 ft | 404 kts | 202° |
| 2026-05-05 13:24 | 50.44280 | 3.74341 | 34565 ft | 406 kts | 202° |
| 2026-05-05 13:24 | 50.41725 | 3.72562 | 34813 ft | 406 kts | 204° |
| 2026-05-05 13:25 | 50.39210 | 3.70558 | 35056 ft | 406 kts | 207° |
| 2026-05-05 13:25 | 50.36790 | 3.68308 | 35240 ft | 407 kts | 211° |
| 2026-05-05 13:25 | 50.34445 | 3.65787 | 35373 ft | 409 kts | 215° |
| 2026-05-05 13:25 | 50.32197 | 3.63002 | 35495 ft | 411 kts | 218° |
| 2026-05-05 13:26 | 50.30095 | 3.60015 | 35616 ft | 412 kts | 222° |
| 2026-05-05 13:26 | 50.28103 | 3.56777 | 35726 ft | 414 kts | 226° |
| 2026-05-05 13:26 | 50.26201 | 3.53446 | 35830 ft | 415 kts | 226° |
| 2026-05-05 13:26 | 50.24278 | 3.50074 | 35951 ft | 416 kts | 226° |
| 2026-05-05 13:27 | 50.22356 | 3.46706 | 36074 ft | 416 kts | 226° |
| 2026-05-05 13:27 | 50.20432 | 3.43337 | 36200 ft | 416 kts | 226° |
| 2026-05-05 13:27 | 50.18516 | 3.39989 | 36319 ft | 416 kts | 226° |
| 2026-05-05 13:27 | 50.16587 | 3.36620 | 36462 ft | 416 kts | 226° |
| 2026-05-05 13:28 | 50.14657 | 3.33257 | 36609 ft | 417 kts | 226° |
| 2026-05-05 13:28 | 50.12730 | 3.29905 | 36755 ft | 417 kts | 226° |
| 2026-05-05 13:28 | 50.10807 | 3.26561 | 36902 ft | 417 kts | 226° |
| 2026-05-05 13:28 | 50.08855 | 3.23176 | 37051 ft | 418 kts | 226° |
| 2026-05-05 13:29 | 50.06916 | 3.19814 | 37191 ft | 418 kts | 226° |
| 2026-05-05 13:29 | 50.04990 | 3.16480 | 37322 ft | 418 kts | 226° |
| 2026-05-05 13:29 | 50.03033 | 3.13097 | 37456 ft | 419 kts | 226° |
| 2026-05-05 13:29 | 50.01082 | 3.09730 | 37590 ft | 419 kts | 226° |
| 2026-05-05 13:30 | 49.99153 | 3.06405 | 37707 ft | 420 kts | 226° |
| 2026-05-05 13:30 | 49.97207 | 3.03056 | 38011 ft | 420 kts | 226° |
| 2026-05-05 13:30 | 49.95247 | 2.99686 | 38121 ft | 419 kts | 226° |
| 2026-05-05 13:30 | 49.93300 | 2.96341 | 38228 ft | 419 kts | 226° |
| 2026-05-05 13:31 | 49.89406 | 2.89663 | 38384 ft | 419 kts | 226° |
| 2026-05-05 13:31 | 49.85504 | 2.82992 | 38542 ft | 420 kts | 226° |
| 2026-05-05 13:32 | 49.81574 | 2.76292 | 38674 ft | 420 kts | 226° |
| 2026-05-05 13:32 | 49.77661 | 2.69639 | 38810 ft | 421 kts | 226° |
| 2026-05-05 13:33 | 49.73727 | 2.62967 | 38813 ft | 423 kts | 227° |
| 2026-05-05 13:33 | 49.69756 | 2.56248 | 38815 ft | 423 kts | 227° |
| 2026-05-05 13:34 | 49.65808 | 2.49583 | 38795 ft | 423 kts | 226° |
| 2026-05-05 13:34 | 49.61838 | 2.42899 | 38806 ft | 425 kts | 226° |
| 2026-05-05 13:35 | 49.57843 | 2.36193 | 38816 ft | 425 kts | 226° |
| 2026-05-05 13:35 | 49.53881 | 2.29562 | 38825 ft | 424 kts | 226° |
| 2026-05-05 13:36 | 49.49875 | 2.22871 | 38828 ft | 424 kts | 226° |
| 2026-05-05 13:36 | 49.45903 | 2.16253 | 38822 ft | 425 kts | 226° |
| 2026-05-05 13:37 | 49.41879 | 2.09570 | 38831 ft | 425 kts | 226° |
| 2026-05-05 13:37 | 49.37883 | 2.02949 | 38829 ft | 425 kts | 226° |
| 2026-05-05 13:38 | 49.33857 | 1.96294 | 38834 ft | 425 kts | 226° |
| 2026-05-05 13:38 | 49.29859 | 1.89702 | 38821 ft | 425 kts | 226° |
| 2026-05-05 13:39 | 49.25846 | 1.83100 | 38824 ft | 425 kts | 226° |
| 2026-05-05 13:39 | 49.21820 | 1.76499 | 38819 ft | 426 kts | 226° |
| 2026-05-05 13:40 | 49.17788 | 1.69902 | 38828 ft | 426 kts | 226° |
| 2026-05-05 13:40 | 49.13739 | 1.63296 | 38825 ft | 426 kts | 226° |
| 2026-05-05 13:41 | 49.09712 | 1.56743 | 38819 ft | 426 kts | 226° |
| 2026-05-05 13:41 | 49.05665 | 1.50172 | 38822 ft | 427 kts | 226° |
| 2026-05-05 13:42 | 49.01597 | 1.43585 | 38826 ft | 427 kts | 226° |
| 2026-05-05 13:42 | 48.97534 | 1.37022 | 38821 ft | 426 kts | 226° |
| 2026-05-05 13:43 | 48.93494 | 1.30513 | 38822 ft | 427 kts | 225° |
| 2026-05-05 13:43 | 48.89417 | 1.23961 | 38821 ft | 427 kts | 225° |
| 2026-05-05 13:44 | 48.85337 | 1.17421 | 38824 ft | 427 kts | 225° |
| 2026-05-05 13:44 | 48.81283 | 1.10938 | 38813 ft | 426 kts | 225° |
| 2026-05-05 13:45 | 48.77200 | 1.04428 | 38818 ft | 427 kts | 225° |
| 2026-05-05 13:45 | 48.73111 | 0.97925 | 38819 ft | 427 kts | 225° |
| 2026-05-05 13:46 | 48.69024 | 0.91436 | 38824 ft | 428 kts | 225° |
| 2026-05-05 13:46 | 48.64910 | 0.84926 | 38823 ft | 428 kts | 225° |
| 2026-05-05 13:47 | 48.60803 | 0.78441 | 38823 ft | 428 kts | 225° |
| 2026-05-05 13:47 | 48.56716 | 0.72006 | 38824 ft | 428 kts | 225° |
| 2026-05-05 13:48 | 48.52605 | 0.65545 | 38822 ft | 428 kts | 225° |
| 2026-05-05 13:48 | 48.48484 | 0.59086 | 38819 ft | 428 kts | 225° |
| 2026-05-05 13:49 | 48.44352 | 0.52630 | 38821 ft | 428 kts | 225° |
| 2026-05-05 13:49 | 48.40228 | 0.46199 | 38828 ft | 429 kts | 225° |
| 2026-05-05 13:50 | 48.36102 | 0.39782 | 38828 ft | 429 kts | 225° |
| 2026-05-05 13:50 | 48.31953 | 0.33345 | 38832 ft | 430 kts | 225° |
| 2026-05-05 13:51 | 48.27815 | 0.26939 | 38825 ft | 429 kts | 225° |
| 2026-05-05 13:51 | 48.23660 | 0.20526 | 38834 ft | 430 kts | 225° |
| 2026-05-05 13:52 | 48.19514 | 0.14139 | 38832 ft | 430 kts | 225° |
| 2026-05-05 13:52 | 48.15341 | 0.07726 | 38824 ft | 429 kts | 225° |
| 2026-05-05 13:53 | 48.11163 | 0.01325 | 38821 ft | 430 kts | 225° |
| 2026-05-05 13:53 | 48.07008 | -0.05024 | 38827 ft | 430 kts | 225° |
| 2026-05-05 13:54 | 48.02833 | -0.11391 | 38829 ft | 430 kts | 225° |
| 2026-05-05 13:54 | 47.98678 | -0.17710 | 38832 ft | 430 kts | 225° |
| 2026-05-05 13:55 | 47.94492 | -0.24062 | 38835 ft | 430 kts | 225° |
| 2026-05-05 13:55 | 47.90280 | -0.30435 | 38840 ft | 431 kts | 225° |
| 2026-05-05 13:56 | 47.86098 | -0.36752 | 38841 ft | 431 kts | 225° |
| 2026-05-05 13:56 | 47.81895 | -0.43083 | 38850 ft | 431 kts | 225° |
| 2026-05-05 13:57 | 47.77683 | -0.49412 | 38851 ft | 431 kts | 225° |
| 2026-05-05 13:57 | 47.73474 | -0.55721 | 38851 ft | 431 kts | 225° |
| 2026-05-05 13:58 | 47.69253 | -0.62032 | 38849 ft | 430 kts | 225° |
| 2026-05-05 13:58 | 47.65041 | -0.68314 | 38845 ft | 431 kts | 224° |
| 2026-05-05 13:59 | 47.58716 | -0.77719 | 38843 ft | 431 kts | 224° |
| 2026-05-05 14:00 | 47.52380 | -0.87078 | 38839 ft | 431 kts | 224° |
| 2026-05-05 14:00 | 47.48049 | -0.93275 | 38839 ft | 431 kts | 223° |
| 2026-05-05 14:01 | 47.43735 | -0.99421 | 38841 ft | 431 kts | 223° |
| 2026-05-05 14:01 | 47.39417 | -1.05568 | 38838 ft | 431 kts | 223° |
| 2026-05-05 14:02 | 47.35112 | -1.11684 | 38837 ft | 431 kts | 223° |
| 2026-05-05 14:02 | 47.30803 | -1.17795 | 38831 ft | 431 kts | 223° |
| 2026-05-05 14:03 | 47.26465 | -1.23927 | 38841 ft | 432 kts | 223° |
| 2026-05-05 14:03 | 47.22138 | -1.30034 | 38839 ft | 432 kts | 223° |
| 2026-05-05 14:04 | 47.17804 | -1.36134 | 38849 ft | 432 kts | 224° |
| 2026-05-05 14:04 | 47.13472 | -1.42216 | 38852 ft | 433 kts | 224° |
| 2026-05-05 14:05 | 47.09119 | -1.48318 | 38855 ft | 433 kts | 224° |
| 2026-05-05 14:05 | 47.04901 | -1.54216 | 38857 ft | 433 kts | 224° |
| 2026-05-05 14:06 | 47.00540 | -1.60297 | 38852 ft | 433 kts | 224° |
| 2026-05-05 14:06 | 46.96170 | -1.66376 | 38857 ft | 433 kts | 223° |
| 2026-05-05 14:07 | 46.91805 | -1.72436 | 38860 ft | 433 kts | 223° |
| 2026-05-05 14:07 | 46.87450 | -1.78468 | 38867 ft | 434 kts | 223° |
| 2026-05-05 14:08 | 46.83061 | -1.84529 | 38878 ft | 434 kts | 223° |
| 2026-05-05 14:08 | 46.78702 | -1.90535 | 38884 ft | 433 kts | 223° |
| 2026-05-05 14:09 | 46.74326 | -1.96553 | 38873 ft | 433 kts | 223° |
| 2026-05-05 14:09 | 46.69948 | -2.02560 | 38872 ft | 433 kts | 223° |
| 2026-05-05 14:10 | 46.65602 | -2.08509 | 38874 ft | 433 kts | 223° |
| 2026-05-05 14:10 | 46.61205 | -2.14514 | 38875 ft | 433 kts | 223° |
| 2026-05-05 14:11 | 46.56831 | -2.20468 | 38877 ft | 433 kts | 223° |
| 2026-05-05 14:11 | 46.52439 | -2.26435 | 38881 ft | 433 kts | 223° |
| 2026-05-05 14:12 | 46.48062 | -2.32372 | 38884 ft | 433 kts | 223° |
| 2026-05-05 14:12 | 46.43659 | -2.38331 | 38884 ft | 434 kts | 223° |
| 2026-05-05 14:13 | 46.39263 | -2.44264 | 38884 ft | 433 kts | 223° |
| 2026-05-05 14:13 | 46.34876 | -2.50171 | 38901 ft | 433 kts | 223° |
| 2026-05-05 14:14 | 46.30462 | -2.56098 | 38896 ft | 433 kts | 223° |
| 2026-05-05 14:14 | 46.26042 | -2.62021 | 38898 ft | 434 kts | 224° |
| 2026-05-05 14:15 | 46.21640 | -2.67909 | 38904 ft | 434 kts | 223° |
| 2026-05-05 14:15 | 46.17200 | -2.73836 | 38904 ft | 434 kts | 223° |
| 2026-05-05 14:16 | 46.12798 | -2.79698 | 38910 ft | 434 kts | 223° |
| 2026-05-05 14:16 | 46.08366 | -2.85586 | 38912 ft | 434 kts | 223° |
| 2026-05-05 14:17 | 46.03952 | -2.91433 | 38909 ft | 434 kts | 223° |
| 2026-05-05 14:17 | 45.99498 | -2.97319 | 38906 ft | 433 kts | 223° |
| 2026-05-05 14:18 | 45.95075 | -3.03153 | 38914 ft | 433 kts | 223° |
| 2026-05-05 14:18 | 45.90655 | -3.08969 | 38909 ft | 434 kts | 223° |
| 2026-05-05 14:19 | 45.86209 | -3.14809 | 38914 ft | 434 kts | 223° |
| 2026-05-05 14:19 | 45.81756 | -3.20644 | 38917 ft | 433 kts | 223° |
| 2026-05-05 14:20 | 45.77330 | -3.26430 | 38919 ft | 433 kts | 223° |
| 2026-05-05 14:20 | 45.72890 | -3.32220 | 38922 ft | 433 kts | 223° |
| 2026-05-05 14:21 | 45.68439 | -3.38010 | 38920 ft | 433 kts | 223° |
| 2026-05-05 14:21 | 45.63984 | -3.43793 | 38927 ft | 434 kts | 223° |
| 2026-05-05 14:22 | 45.59529 | -3.49564 | 38926 ft | 434 kts | 223° |
| 2026-05-05 14:22 | 45.55070 | -3.55329 | 38930 ft | 433 kts | 223° |
| 2026-05-05 14:23 | 45.50591 | -3.61107 | 38931 ft | 433 kts | 223° |
| 2026-05-05 14:23 | 45.46128 | -3.66849 | 38932 ft | 433 kts | 223° |
| 2026-05-05 14:24 | 45.41672 | -3.72569 | 38935 ft | 433 kts | 223° |
| 2026-05-05 14:24 | 45.37196 | -3.78305 | 38940 ft | 433 kts | 223° |
| 2026-05-05 14:25 | 45.32735 | -3.84006 | 38941 ft | 433 kts | 223° |
| 2026-05-05 14:25 | 45.28275 | -3.89692 | 38950 ft | 433 kts | 223° |
| 2026-05-05 14:26 | 45.23798 | -3.95392 | 38950 ft | 434 kts | 223° |
| 2026-05-05 14:26 | 45.19327 | -4.01070 | 38955 ft | 434 kts | 223° |
| 2026-05-05 14:27 | 45.14810 | -4.06795 | 38956 ft | 433 kts | 223° |
| 2026-05-05 14:27 | 45.10309 | -4.12485 | 38958 ft | 432 kts | 223° |
| 2026-05-05 14:28 | 45.05845 | -4.18112 | 38962 ft | 432 kts | 223° |
| 2026-05-05 14:28 | 45.01355 | -4.23764 | 38961 ft | 432 kts | 223° |
| 2026-05-05 14:29 | 44.96876 | -4.29389 | 38962 ft | 432 kts | 223° |
| 2026-05-05 14:29 | 44.92384 | -4.35018 | 38965 ft | 433 kts | 223° |
| 2026-05-05 14:30 | 44.87879 | -4.40654 | 38966 ft | 433 kts | 223° |
| 2026-05-05 14:30 | 44.83474 | -4.46150 | 38968 ft | 433 kts | 223° |
| 2026-05-05 14:31 | 44.78976 | -4.51750 | 38969 ft | 432 kts | 223° |
| 2026-05-05 14:31 | 44.74489 | -4.57325 | 38971 ft | 432 kts | 223° |
| 2026-05-05 14:32 | 44.69975 | -4.62921 | 38971 ft | 433 kts | 223° |
| 2026-05-05 14:32 | 44.65485 | -4.68473 | 38973 ft | 433 kts | 223° |
| 2026-05-05 14:33 | 44.60965 | -4.74054 | 38973 ft | 433 kts | 223° |
| 2026-05-05 14:33 | 44.56445 | -4.79621 | 38975 ft | 433 kts | 223° |
| 2026-05-05 14:34 | 44.51953 | -4.85143 | 38976 ft | 433 kts | 223° |
| 2026-05-05 14:34 | 44.47425 | -4.90698 | 38976 ft | 433 kts | 223° |
| 2026-05-05 14:35 | 44.42899 | -4.96237 | 38979 ft | 433 kts | 223° |
| 2026-05-05 14:35 | 44.38372 | -5.01764 | 38981 ft | 433 kts | 223° |
| 2026-05-05 14:36 | 44.33863 | -5.07259 | 38979 ft | 433 kts | 223° |
| 2026-05-05 14:36 | 44.29321 | -5.12782 | 38980 ft | 433 kts | 223° |
| 2026-05-05 14:37 | 44.24767 | -5.18307 | 38979 ft | 433 kts | 223° |
| 2026-05-05 14:37 | 44.20251 | -5.23774 | 38976 ft | 432 kts | 223° |
| 2026-05-05 14:38 | 44.15715 | -5.29256 | 38979 ft | 432 kts | 223° |
| 2026-05-05 14:38 | 44.11172 | -5.34734 | 38979 ft | 432 kts | 223° |
| 2026-05-05 14:39 | 44.06633 | -5.40196 | 38978 ft | 432 kts | 223° |
| 2026-05-05 14:39 | 44.02110 | -5.45628 | 38979 ft | 433 kts | 223° |
| 2026-05-05 14:40 | 43.97557 | -5.51082 | 38980 ft | 433 kts | 223° |
| 2026-05-05 14:40 | 43.93029 | -5.56495 | 38983 ft | 433 kts | 223° |
| 2026-05-05 14:41 | 43.88459 | -5.61945 | 38980 ft | 432 kts | 223° |
| 2026-05-05 14:41 | 43.83915 | -5.67354 | 38987 ft | 432 kts | 223° |
| 2026-05-05 14:42 | 43.79364 | -5.72763 | 38987 ft | 432 kts | 223° |
| 2026-05-05 14:42 | 43.74824 | -5.78149 | 38992 ft | 432 kts | 223° |
| 2026-05-05 14:43 | 43.70253 | -5.83556 | 38994 ft | 432 kts | 223° |
| 2026-05-05 14:43 | 43.65706 | -5.88926 | 39008 ft | 432 kts | 223° |
| 2026-05-05 14:44 | 43.61195 | -5.94362 | 39002 ft | 431 kts | 227° |
| 2026-05-05 14:44 | 43.57276 | -6.00583 | 39015 ft | 428 kts | 237° |
| 2026-05-05 14:45 | 43.54228 | -6.07596 | 39016 ft | 424 kts | 246° |
| 2026-05-05 14:45 | 43.52081 | -6.15105 | 39015 ft | 422 kts | 253° |
| 2026-05-05 14:46 | 43.50188 | -6.22749 | 39008 ft | 422 kts | 253° |
| 2026-05-05 14:46 | 43.48294 | -6.30361 | 39004 ft | 422 kts | 253° |
| 2026-05-05 14:47 | 43.46389 | -6.37964 | 39002 ft | 422 kts | 253° |
| 2026-05-05 14:47 | 43.44482 | -6.45547 | 38999 ft | 423 kts | 253° |
| 2026-05-05 14:48 | 43.42552 | -6.53187 | 39005 ft | 423 kts | 253° |
| 2026-05-05 14:48 | 43.40609 | -6.60851 | 39002 ft | 423 kts | 253° |
| 2026-05-05 14:49 | 43.38674 | -6.68461 | 39003 ft | 423 kts | 253° |
| 2026-05-05 14:49 | 43.36739 | -6.76049 | 39005 ft | 423 kts | 253° |
| 2026-05-05 14:50 | 43.34785 | -6.83687 | 39007 ft | 423 kts | 253° |
| 2026-05-05 14:50 | 43.32835 | -6.91279 | 39011 ft | 423 kts | 253° |
| 2026-05-05 14:51 | 43.30882 | -6.98863 | 39017 ft | 423 kts | 253° |
| 2026-05-05 14:51 | 43.28912 | -7.06485 | 39019 ft | 424 kts | 253° |
| 2026-05-05 14:52 | 43.26946 | -7.14068 | 39026 ft | 424 kts | 253° |
| 2026-05-05 14:52 | 43.24974 | -7.21646 | 39015 ft | 423 kts | 253° |
| 2026-05-05 14:53 | 43.23000 | -7.29220 | 39021 ft | 422 kts | 253° |
| 2026-05-05 14:53 | 43.21010 | -7.36824 | 39028 ft | 421 kts | 253° |
| 2026-05-05 14:54 | 43.19040 | -7.44324 | 39031 ft | 421 kts | 253° |
| 2026-05-05 14:54 | 43.17066 | -7.51822 | 39028 ft | 421 kts | 253° |
| 2026-05-05 14:55 | 43.15070 | -7.59374 | 39036 ft | 421 kts | 253° |
| 2026-05-05 14:55 | 43.13077 | -7.66890 | 39028 ft | 421 kts | 253° |
| 2026-05-05 14:56 | 43.11075 | -7.74423 | 39026 ft | 421 kts | 253° |
| 2026-05-05 14:56 | 43.09079 | -7.81908 | 39029 ft | 421 kts | 253° |
| 2026-05-05 14:57 | 43.07072 | -7.89410 | 39024 ft | 420 kts | 253° |
| 2026-05-05 14:57 | 43.05078 | -7.96841 | 39028 ft | 420 kts | 253° |
| 2026-05-05 14:58 | 43.03071 | -8.04293 | 39026 ft | 419 kts | 253° |
| 2026-05-05 14:58 | 43.01047 | -8.11796 | 39030 ft | 420 kts | 253° |
| 2026-05-05 14:59 | 42.99029 | -8.19239 | 39041 ft | 419 kts | 253° |
| 2026-05-05 14:59 | 42.97017 | -8.26642 | 39040 ft | 419 kts | 253° |
| 2026-05-05 15:00 | 42.95276 | -8.32823 | 39036 ft | 421 kts | 249° |
| 2026-05-05 15:00 | 42.91804 | -8.40897 | 39047 ft | 427 kts | 236° |
| 2026-05-05 15:01 | 42.87766 | -8.46870 | 39049 ft | 432 kts | 225° |
| 2026-05-05 15:01 | 42.82986 | -8.51792 | 39056 ft | 435 kts | 219° |
| 2026-05-05 15:02 | 42.77988 | -8.56509 | 39050 ft | 435 kts | 219° |
| 2026-05-05 15:02 | 42.73060 | -8.61159 | 39047 ft | 434 kts | 219° |
| 2026-05-05 15:03 | 42.68111 | -8.65833 | 39046 ft | 433 kts | 218° |
| 2026-05-05 15:03 | 42.63154 | -8.70511 | 39053 ft | 433 kts | 219° |
| 2026-05-05 15:04 | 42.58237 | -8.75146 | 39062 ft | 432 kts | 219° |
| 2026-05-05 15:04 | 42.53295 | -8.79794 | 39050 ft | 432 kts | 219° |
| 2026-05-05 15:05 | 42.45911 | -8.86724 | 39063 ft | 431 kts | 219° |
| 2026-05-05 15:06 | 42.40983 | -8.91335 | 39065 ft | 430 kts | 219° |
| 2026-05-05 15:06 | 42.36071 | -8.95925 | 39075 ft | 430 kts | 219° |
| 2026-05-05 15:07 | 42.31165 | -9.00500 | 39082 ft | 429 kts | 219° |
| 2026-05-05 15:07 | 42.26268 | -9.05058 | 39045 ft | 428 kts | 219° |
| 2026-05-05 15:08 | 42.21381 | -9.09598 | 39053 ft | 428 kts | 219° |
| 2026-05-05 15:08 | 42.16465 | -9.14155 | 39077 ft | 427 kts | 219° |
| 2026-05-05 15:09 | 42.11610 | -9.18649 | 39050 ft | 427 kts | 219° |
| 2026-05-05 15:09 | 42.06700 | -9.23183 | 39070 ft | 426 kts | 219° |
| 2026-05-05 15:10 | 42.01824 | -9.27678 | 39075 ft | 426 kts | 219° |
| 2026-05-05 15:10 | 41.96975 | -9.32138 | 39063 ft | 425 kts | 219° |
| 2026-05-05 15:11 | 41.92076 | -9.36637 | 39065 ft | 425 kts | 219° |
| 2026-05-05 15:11 | 41.87215 | -9.41093 | 39064 ft | 425 kts | 219° |
| 2026-05-05 15:12 | 41.82338 | -9.45551 | 39071 ft | 425 kts | 219° |
| 2026-05-05 15:12 | 41.77463 | -9.49999 | 39074 ft | 425 kts | 219° |
| 2026-05-05 15:13 | 41.72588 | -9.54438 | 39077 ft | 425 kts | 219° |
| 2026-05-05 15:13 | 41.67695 | -9.58886 | 39090 ft | 424 kts | 219° |
| 2026-05-05 15:14 | 41.62831 | -9.63299 | 39077 ft | 424 kts | 219° |
| 2026-05-05 15:14 | 41.57968 | -9.67704 | 39082 ft | 423 kts | 218° |
| 2026-05-05 15:15 | 41.53105 | -9.72099 | 39078 ft | 423 kts | 218° |
| 2026-05-05 15:15 | 41.48242 | -9.76488 | 39082 ft | 424 kts | 218° |
| 2026-05-05 15:16 | 41.43342 | -9.80903 | 39079 ft | 424 kts | 218° |
| 2026-05-05 15:16 | 41.38469 | -9.85284 | 39104 ft | 423 kts | 218° |
| 2026-05-05 15:17 | 41.33609 | -9.89644 | 39086 ft | 422 kts | 218° |
| 2026-05-05 15:17 | 41.28748 | -9.93998 | 39079 ft | 421 kts | 218° |
| 2026-05-05 15:18 | 41.23900 | -9.98333 | 39095 ft | 421 kts | 218° |
| 2026-05-05 15:18 | 41.19058 | -10.02653 | 39081 ft | 421 kts | 218° |
| 2026-05-05 15:19 | 41.14177 | -10.07000 | 39087 ft | 422 kts | 218° |
| 2026-05-05 15:19 | 41.09308 | -10.11328 | 39098 ft | 421 kts | 218° |
| 2026-05-05 15:20 | 41.04475 | -10.15618 | 39094 ft | 419 kts | 218° |
| 2026-05-05 15:20 | 40.99646 | -10.19898 | 39090 ft | 419 kts | 218° |
| 2026-05-05 15:21 | 40.94821 | -10.24166 | 39087 ft | 418 kts | 218° |
| 2026-05-05 15:21 | 40.89962 | -10.28455 | 39086 ft | 418 kts | 218° |
| 2026-05-05 15:22 | 40.85138 | -10.32707 | 39091 ft | 418 kts | 218° |
| 2026-05-05 15:22 | 40.80311 | -10.36952 | 39091 ft | 418 kts | 218° |
| 2026-05-05 15:23 | 40.75479 | -10.41196 | 39091 ft | 418 kts | 218° |
| 2026-05-05 15:23 | 40.70668 | -10.45413 | 39091 ft | 417 kts | 218° |
| 2026-05-05 15:24 | 40.65826 | -10.49649 | 39095 ft | 417 kts | 218° |
| 2026-05-05 15:24 | 40.61000 | -10.53864 | 39095 ft | 416 kts | 218° |
| 2026-05-05 15:25 | 40.56204 | -10.58046 | 39091 ft | 415 kts | 218° |
| 2026-05-05 15:25 | 40.51381 | -10.62242 | 39096 ft | 415 kts | 218° |
| 2026-05-05 15:26 | 40.46589 | -10.66406 | 39100 ft | 415 kts | 218° |
| 2026-05-05 15:26 | 40.41790 | -10.70570 | 39098 ft | 415 kts | 218° |
| 2026-05-05 15:27 | 40.36967 | -10.74747 | 39099 ft | 414 kts | 218° |
| 2026-05-05 15:27 | 40.32176 | -10.78888 | 39101 ft | 413 kts | 218° |
| 2026-05-05 15:28 | 40.27387 | -10.83020 | 39107 ft | 413 kts | 217° |
| 2026-05-05 15:28 | 40.22604 | -10.87141 | 39099 ft | 412 kts | 217° |
| 2026-05-05 15:29 | 40.17823 | -10.91253 | 39105 ft | 412 kts | 217° |
| 2026-05-05 15:29 | 40.13065 | -10.95336 | 39108 ft | 411 kts | 217° |
| 2026-05-05 15:30 | 40.08279 | -10.99436 | 39105 ft | 411 kts | 217° |
| 2026-05-05 15:30 | 40.03506 | -11.03519 | 39109 ft | 410 kts | 218° |
| 2026-05-05 15:31 | 39.98741 | -11.07589 | 39104 ft | 409 kts | 218° |
| 2026-05-05 15:31 | 39.93997 | -11.11635 | 39101 ft | 409 kts | 217° |
| 2026-05-05 15:32 | 39.89223 | -11.15699 | 39109 ft | 408 kts | 217° |
| 2026-05-05 15:32 | 39.84490 | -11.19721 | 39102 ft | 409 kts | 217° |
| 2026-05-05 15:33 | 39.79736 | -11.23754 | 39110 ft | 409 kts | 217° |
| 2026-05-05 15:33 | 39.74954 | -11.27806 | 39108 ft | 409 kts | 217° |
| 2026-05-05 15:34 | 39.70210 | -11.31815 | 39111 ft | 409 kts | 217° |
| 2026-05-05 15:34 | 39.65425 | -11.35854 | 39111 ft | 409 kts | 217° |
| 2026-05-05 15:35 | 39.60672 | -11.39860 | 39113 ft | 408 kts | 217° |
| 2026-05-05 15:35 | 39.55900 | -11.43873 | 39113 ft | 408 kts | 217° |
| 2026-05-05 15:36 | 39.51155 | -11.47859 | 39114 ft | 408 kts | 217° |
| 2026-05-05 15:36 | 39.46402 | -11.51843 | 39116 ft | 408 kts | 217° |
| 2026-05-05 15:37 | 39.41655 | -11.55817 | 39112 ft | 408 kts | 217° |
| 2026-05-05 15:37 | 39.36877 | -11.59811 | 39118 ft | 408 kts | 217° |
| 2026-05-05 15:38 | 39.32130 | -11.63772 | 39123 ft | 407 kts | 217° |
| 2026-05-05 15:38 | 39.27389 | -11.67719 | 39119 ft | 407 kts | 217° |
| 2026-05-05 15:39 | 39.22635 | -11.71674 | 39120 ft | 407 kts | 217° |
| 2026-05-05 15:39 | 39.17876 | -11.75625 | 39116 ft | 406 kts | 217° |
| 2026-05-05 15:40 | 39.13123 | -11.79564 | 39121 ft | 407 kts | 217° |
| 2026-05-05 15:40 | 39.08392 | -11.83480 | 39133 ft | 407 kts | 217° |
| 2026-05-05 15:41 | 39.03615 | -11.87427 | 39138 ft | 407 kts | 217° |
| 2026-05-05 15:41 | 38.98870 | -11.91342 | 39143 ft | 407 kts | 217° |
| 2026-05-05 15:42 | 38.94099 | -11.95271 | 39148 ft | 406 kts | 217° |
| 2026-05-05 15:42 | 38.89352 | -11.99173 | 39146 ft | 406 kts | 217° |
| 2026-05-05 15:43 | 38.84619 | -12.03058 | 39144 ft | 406 kts | 217° |
| 2026-05-05 15:43 | 38.79870 | -12.06951 | 39142 ft | 407 kts | 217° |
| 2026-05-05 15:44 | 38.75099 | -12.10854 | 39145 ft | 406 kts | 217° |
| 2026-05-05 15:44 | 38.70355 | -12.14730 | 39144 ft | 406 kts | 217° |
| 2026-05-05 15:45 | 38.65585 | -12.18620 | 39146 ft | 405 kts | 217° |
| 2026-05-05 15:45 | 38.60880 | -12.22450 | 39145 ft | 398 kts | 217° |
| 2026-05-05 15:46 | 38.56205 | -12.26253 | 39145 ft | 397 kts | 217° |
| 2026-05-05 15:46 | 38.51559 | -12.30025 | 39148 ft | 397 kts | 217° |
| 2026-05-05 15:47 | 38.46894 | -12.33805 | 39146 ft | 396 kts | 217° |
| 2026-05-05 15:47 | 38.42258 | -12.37556 | 39144 ft | 396 kts | 217° |
| 2026-05-05 15:48 | 38.37608 | -12.41315 | 39142 ft | 396 kts | 217° |
| 2026-05-05 15:48 | 38.32955 | -12.45067 | 39146 ft | 396 kts | 217° |
| 2026-05-05 15:49 | 38.28298 | -12.48818 | 39145 ft | 396 kts | 217° |
| 2026-05-05 15:49 | 38.23644 | -12.52564 | 39141 ft | 396 kts | 217° |
| 2026-05-05 15:50 | 38.19018 | -12.56278 | 39144 ft | 395 kts | 217° |
| 2026-05-05 15:50 | 38.14355 | -12.60018 | 39143 ft | 395 kts | 217° |
| 2026-05-05 15:51 | 38.09739 | -12.63714 | 39140 ft | 395 kts | 217° |
| 2026-05-05 15:51 | 38.05066 | -12.67447 | 39146 ft | 396 kts | 216° |
| 2026-05-05 15:52 | 38.00437 | -12.71143 | 39143 ft | 396 kts | 216° |
| 2026-05-05 15:52 | 37.95778 | -12.74857 | 39141 ft | 395 kts | 216° |
| 2026-05-05 15:53 | 37.91147 | -12.78542 | 39140 ft | 394 kts | 216° |
| 2026-05-05 15:53 | 37.86503 | -12.82232 | 39140 ft | 394 kts | 216° |
| 2026-05-05 15:54 | 37.81862 | -12.85916 | 39139 ft | 394 kts | 216° |
| 2026-05-05 15:54 | 37.77232 | -12.89584 | 39141 ft | 395 kts | 216° |
| 2026-05-05 15:55 | 37.72569 | -12.93272 | 39145 ft | 395 kts | 216° |
| 2026-05-05 15:55 | 37.67916 | -12.96944 | 39142 ft | 396 kts | 216° |
| 2026-05-05 15:56 | 37.63258 | -13.00618 | 39145 ft | 396 kts | 216° |
| 2026-05-05 15:56 | 37.58593 | -13.04295 | 39147 ft | 395 kts | 216° |
| 2026-05-05 15:57 | 37.53944 | -13.07948 | 39143 ft | 394 kts | 216° |
| 2026-05-05 15:57 | 37.49294 | -13.11597 | 39144 ft | 394 kts | 216° |
| 2026-05-05 15:58 | 37.44621 | -13.15261 | 39147 ft | 395 kts | 216° |
| 2026-05-05 15:58 | 37.39948 | -13.18919 | 39143 ft | 395 kts | 216° |
| 2026-05-05 15:59 | 37.35283 | -13.22565 | 39145 ft | 395 kts | 216° |
| 2026-05-05 15:59 | 37.30623 | -13.26203 | 39148 ft | 396 kts | 216° |
| 2026-05-05 16:00 | 37.25955 | -13.29841 | 39144 ft | 395 kts | 216° |
| 2026-05-05 16:00 | 37.21272 | -13.33486 | 39146 ft | 395 kts | 216° |
| 2026-05-05 16:01 | 37.16619 | -13.37100 | 39141 ft | 396 kts | 216° |
| 2026-05-05 16:01 | 37.11956 | -13.40718 | 39142 ft | 395 kts | 216° |
| 2026-05-05 16:02 | 37.07277 | -13.44341 | 39147 ft | 396 kts | 216° |
| 2026-05-05 16:02 | 37.02585 | -13.47972 | 39140 ft | 396 kts | 216° |
| 2026-05-05 16:03 | 36.97910 | -13.51582 | 39146 ft | 397 kts | 216° |
| 2026-05-05 16:03 | 36.93218 | -13.55203 | 39142 ft | 396 kts | 216° |
| 2026-05-05 16:04 | 36.88510 | -13.58827 | 39145 ft | 396 kts | 216° |
| 2026-05-05 16:04 | 36.83830 | -13.62427 | 39142 ft | 396 kts | 216° |
| 2026-05-05 16:05 | 36.79145 | -13.66026 | 39140 ft | 396 kts | 215° |
| 2026-05-05 16:05 | 36.74452 | -13.69624 | 39140 ft | 396 kts | 215° |
| 2026-05-05 16:06 | 36.69768 | -13.73211 | 39145 ft | 397 kts | 215° |
| 2026-05-05 16:06 | 36.65087 | -13.76789 | 39139 ft | 397 kts | 215° |
| 2026-05-05 16:07 | 36.60379 | -13.80384 | 39143 ft | 397 kts | 215° |
| 2026-05-05 16:07 | 36.55674 | -13.83971 | 39144 ft | 396 kts | 215° |
| 2026-05-05 16:08 | 36.50973 | -13.87550 | 39140 ft | 396 kts | 215° |
| 2026-05-05 16:08 | 36.46272 | -13.91124 | 39146 ft | 397 kts | 215° |
| 2026-05-05 16:09 | 36.41573 | -13.94690 | 39144 ft | 397 kts | 215° |
| 2026-05-05 16:09 | 36.36865 | -13.98258 | 39143 ft | 397 kts | 215° |
| 2026-05-05 16:10 | 36.32140 | -14.01834 | 39147 ft | 398 kts | 215° |
| 2026-05-05 16:10 | 36.27423 | -14.05400 | 39144 ft | 397 kts | 215° |
| 2026-05-05 16:11 | 36.22703 | -14.08963 | 39142 ft | 397 kts | 214° |
| 2026-05-05 16:12 | 36.13269 | -14.16068 | 39143 ft | 396 kts | 214° |
| 2026-05-05 16:13 | 36.01325 | -14.25036 | 39145 ft | 408 kts | 214° |
| 2026-05-05 16:13 | 35.96444 | -14.28690 | 39143 ft | 408 kts | 214° |
| 2026-05-05 16:14 | 35.86710 | -14.35964 | 39142 ft | 409 kts | 214° |
| 2026-05-05 16:15 | 35.76979 | -14.43212 | 39141 ft | 408 kts | 214° |
| 2026-05-05 16:16 | 35.67271 | -14.50422 | 39142 ft | 409 kts | 214° |
| 2026-05-05 16:17 | 35.59934 | -14.55860 | 39140 ft | 409 kts | 214° |
| 2026-05-05 16:18 | 35.52599 | -14.61284 | 39141 ft | 409 kts | 214° |
| 2026-05-05 16:19 | 35.45289 | -14.66677 | 39137 ft | 410 kts | 213° |
| 2026-05-05 16:19 | 35.37973 | -14.72061 | 39136 ft | 410 kts | 214° |
| 2026-05-05 16:20 | 35.28179 | -14.79254 | 39134 ft | 410 kts | 214° |
| 2026-05-05 16:22 | 35.15928 | -14.88221 | 39108 ft | 410 kts | 214° |
| 2026-05-05 16:23 | 35.06156 | -14.95351 | 39127 ft | 410 kts | 214° |
| 2026-05-05 16:23 | 34.98823 | -15.00692 | 39128 ft | 410 kts | 214° |
| 2026-05-05 16:24 | 34.93901 | -15.04267 | 39127 ft | 410 kts | 214° |
| 2026-05-05 16:25 | 34.86569 | -15.09584 | 39121 ft | 410 kts | 214° |
| 2026-05-05 16:25 | 34.79189 | -15.14926 | 39122 ft | 410 kts | 214° |
| 2026-05-05 16:26 | 34.69402 | -15.21992 | 39130 ft | 411 kts | 214° |
| 2026-05-05 16:27 | 34.64487 | -15.25534 | 39125 ft | 411 kts | 214° |
| 2026-05-05 16:27 | 34.59562 | -15.29079 | 39124 ft | 411 kts | 214° |
| 2026-05-05 16:28 | 34.54649 | -15.32608 | 39125 ft | 411 kts | 214° |
| 2026-05-05 16:28 | 34.49731 | -15.36136 | 39128 ft | 410 kts | 214° |
| 2026-05-05 16:29 | 34.44838 | -15.39641 | 39126 ft | 410 kts | 214° |
| 2026-05-05 16:29 | 34.39897 | -15.43177 | 38831 ft | 412 kts | 214° |
| 2026-05-05 16:30 | 34.37442 | -15.44932 | 38562 ft | 411 kts | 214° |
| 2026-05-05 16:30 | 34.34989 | -15.46685 | 38297 ft | 411 kts | 214° |
| 2026-05-05 16:30 | 34.32513 | -15.48453 | 38007 ft | 411 kts | 214° |
| 2026-05-05 16:30 | 34.30072 | -15.50194 | 37702 ft | 412 kts | 214° |
| 2026-05-05 16:31 | 34.28175 | -15.51547 | 37463 ft | 412 kts | 214° |